sensor_id;sensor_type;location;lat;lon;timestamp;P1;durP1;ratioP1;P2;durP2;ratioP2
35418;SDS011;21525;41.240;16.500;2023-04-01T00:00:12;12.70;;;4.05;;
35418;SDS011;21525;41.240;16.500;2023-04-01T00:02:38;13.60;;;4.53;;
35418;SDS011;21525;41.240;16.500;2023-04-01T00:05:04;12.80;;;4.20;;
35418;SDS011;21525;41.240;16.500;2023-04-01T00:07:31;15.48;;;5.05;;
35418;SDS011;21525;41.240;16.500;2023-04-01T00:09:58;13.63;;;4.60;;
35418;SDS011;21525;41.240;16.500;2023-04-01T00:12:23;14.95;;;4.40;;
35418;SDS011;21525;41.240;16.500;2023-04-01T00:14:50;13.65;;;4.60;;
35418;SDS011;21525;41.240;16.500;2023-04-01T00:17:16;12.18;;;4.90;;
35418;SDS011;21525;41.240;16.500;2023-04-01T00:19:42;10.25;;;3.67;;
35418;SDS011;21525;41.240;16.500;2023-04-01T00:22:07;9.18;;;3.88;;
35418;SDS011;21525;41.240;16.500;2023-04-01T00:27:03;11.60;;;3.40;;
35418;SDS011;21525;41.240;16.500;2023-04-01T00:29:29;7.00;;;3.08;;
35418;SDS011;21525;41.240;16.500;2023-04-01T00:31:56;6.85;;;3.35;;
35418;SDS011;21525;41.240;16.500;2023-04-01T00:34:22;8.70;;;2.97;;
35418;SDS011;21525;41.240;16.500;2023-04-01T00:36:49;7.47;;;3.13;;
35418;SDS011;21525;41.240;16.500;2023-04-01T00:39:16;8.85;;;3.30;;
35418;SDS011;21525;41.240;16.500;2023-04-01T00:41:42;10.25;;;3.65;;
35418;SDS011;21525;41.240;16.500;2023-04-01T00:44:11;11.73;;;3.35;;
35418;SDS011;21525;41.240;16.500;2023-04-01T00:47:00;11.32;;;3.80;;
35418;SDS011;21525;41.240;16.500;2023-04-01T00:49:27;7.93;;;3.45;;
35418;SDS011;21525;41.240;16.500;2023-04-01T00:51:56;9.30;;;3.95;;
35418;SDS011;21525;41.240;16.500;2023-04-01T00:56:56;16.27;;;4.72;;
35418;SDS011;21525;41.240;16.500;2023-04-01T00:59:59;13.77;;;3.85;;
35418;SDS011;21525;41.240;16.500;2023-04-01T01:02:19;9.18;;;2.67;;
35418;SDS011;21525;41.240;16.500;2023-04-01T01:04:45;13.95;;;3.97;;
35418;SDS011;21525;41.240;16.500;2023-04-01T01:34:32;10.90;;;3.17;;
35418;SDS011;21525;41.240;16.500;2023-04-01T01:37:08;8.60;;;3.00;;
35418;SDS011;21525;41.240;16.500;2023-04-01T01:39:38;9.73;;;2.70;;
35418;SDS011;21525;41.240;16.500;2023-04-01T01:42:07;9.23;;;3.17;;
35418;SDS011;21525;41.240;16.500;2023-04-01T01:44:37;11.82;;;3.10;;
35418;SDS011;21525;41.240;16.500;2023-04-01T01:47:05;14.25;;;3.25;;
35418;SDS011;21525;41.240;16.500;2023-04-01T01:49:31;9.40;;;3.00;;
35418;SDS011;21525;41.240;16.500;2023-04-01T01:51:58;14.73;;;3.60;;
35418;SDS011;21525;41.240;16.500;2023-04-01T01:54:25;11.68;;;3.75;;
35418;SDS011;21525;41.240;16.500;2023-04-01T01:56:52;10.13;;;3.05;;
35418;SDS011;21525;41.240;16.500;2023-04-01T01:59:26;12.35;;;2.95;;
35418;SDS011;21525;41.240;16.500;2023-04-01T02:01:54;9.50;;;3.20;;
35418;SDS011;21525;41.240;16.500;2023-04-01T02:04:21;13.07;;;4.15;;
35418;SDS011;21525;41.240;16.500;2023-04-01T02:06:56;21.23;;;3.95;;
35418;SDS011;21525;41.240;16.500;2023-04-01T02:09:27;13.95;;;3.80;;
35418;SDS011;21525;41.240;16.500;2023-04-01T02:17:25;8.80;;;3.40;;
35418;SDS011;21525;41.240;16.500;2023-04-01T02:19:53;13.15;;;3.97;;
35418;SDS011;21525;41.240;16.500;2023-04-01T02:22:28;17.30;;;7.50;;
35418;SDS011;21525;41.240;16.500;2023-04-01T02:24:58;16.63;;;9.82;;
35418;SDS011;21525;41.240;16.500;2023-04-01T02:27:27;13.18;;;6.47;;
35418;SDS011;21525;41.240;16.500;2023-04-01T02:29:53;16.85;;;7.53;;
35418;SDS011;21525;41.240;16.500;2023-04-01T02:32:19;24.58;;;16.13;;
35418;SDS011;21525;41.240;16.500;2023-04-01T02:34:46;23.75;;;15.10;;
35418;SDS011;21525;41.240;16.500;2023-04-01T02:37:12;13.27;;;6.90;;
35418;SDS011;21525;41.240;16.500;2023-04-01T02:39:39;12.73;;;6.07;;
35418;SDS011;21525;41.240;16.500;2023-04-01T02:42:06;23.40;;;11.25;;
35418;SDS011;21525;41.240;16.500;2023-04-01T02:44:32;24.33;;;9.32;;
35418;SDS011;21525;41.240;16.500;2023-04-01T02:46:58;27.25;;;9.32;;
35418;SDS011;21525;41.240;16.500;2023-04-01T02:49:24;25.08;;;9.40;;
35418;SDS011;21525;41.240;16.500;2023-04-01T02:51:49;20.88;;;8.55;;
35418;SDS011;21525;41.240;16.500;2023-04-01T02:54:17;24.63;;;8.15;;
35418;SDS011;21525;41.240;16.500;2023-04-01T02:56:44;22.90;;;9.63;;
35418;SDS011;21525;41.240;16.500;2023-04-01T02:59:11;14.35;;;6.22;;
35418;SDS011;21525;41.240;16.500;2023-04-01T03:01:37;15.98;;;8.23;;
35418;SDS011;21525;41.240;16.500;2023-04-01T03:04:03;16.05;;;7.05;;
35418;SDS011;21525;41.240;16.500;2023-04-01T03:06:30;14.57;;;5.35;;
35418;SDS011;21525;41.240;16.500;2023-04-01T03:08:56;13.93;;;4.80;;
35418;SDS011;21525;41.240;16.500;2023-04-01T03:11:22;14.75;;;4.65;;
35418;SDS011;21525;41.240;16.500;2023-04-01T03:13:48;13.10;;;4.65;;
35418;SDS011;21525;41.240;16.500;2023-04-01T03:16:14;16.60;;;4.55;;
35418;SDS011;21525;41.240;16.500;2023-04-01T03:18:40;10.73;;;4.07;;
35418;SDS011;21525;41.240;16.500;2023-04-01T03:21:13;9.27;;;3.78;;
35418;SDS011;21525;41.240;16.500;2023-04-01T03:23:40;10.70;;;3.75;;
35418;SDS011;21525;41.240;16.500;2023-04-01T03:26:06;11.88;;;4.20;;
35418;SDS011;21525;41.240;16.500;2023-04-01T03:28:33;15.50;;;4.28;;
35418;SDS011;21525;41.240;16.500;2023-04-01T03:30:59;10.43;;;4.13;;
35418;SDS011;21525;41.240;16.500;2023-04-01T03:33:29;15.60;;;5.10;;
35418;SDS011;21525;41.240;16.500;2023-04-01T03:35:55;12.27;;;4.40;;
35418;SDS011;21525;41.240;16.500;2023-04-01T03:38:21;12.15;;;6.03;;
35418;SDS011;21525;41.240;16.500;2023-04-01T03:40:46;14.93;;;7.10;;
35418;SDS011;21525;41.240;16.500;2023-04-01T03:43:12;16.17;;;8.40;;
35418;SDS011;21525;41.240;16.500;2023-04-01T03:45:48;32.40;;;18.05;;
35418;SDS011;21525;41.240;16.500;2023-04-01T03:48:15;30.95;;;17.48;;
35418;SDS011;21525;41.240;16.500;2023-04-01T03:50:41;19.60;;;7.70;;
35418;SDS011;21525;41.240;16.500;2023-04-01T03:53:10;10.45;;;4.78;;
35418;SDS011;21525;41.240;16.500;2023-04-01T03:55:39;21.25;;;5.55;;
35418;SDS011;21525;41.240;16.500;2023-04-01T03:58:06;12.32;;;4.03;;
35418;SDS011;21525;41.240;16.500;2023-04-01T04:00:33;11.93;;;4.20;;
35418;SDS011;21525;41.240;16.500;2023-04-01T04:03:00;11.55;;;4.45;;
35418;SDS011;21525;41.240;16.500;2023-04-01T04:05:31;11.57;;;4.72;;
35418;SDS011;21525;41.240;16.500;2023-04-01T04:07:57;16.60;;;6.53;;
35418;SDS011;21525;41.240;16.500;2023-04-01T04:10:23;10.35;;;5.30;;
35418;SDS011;21525;41.240;16.500;2023-04-01T04:12:50;13.93;;;5.38;;
35418;SDS011;21525;41.240;16.500;2023-04-01T04:15:17;13.65;;;5.20;;
35418;SDS011;21525;41.240;16.500;2023-04-01T04:17:44;11.07;;;5.07;;
35418;SDS011;21525;41.240;16.500;2023-04-01T04:20:10;10.65;;;4.80;;
35418;SDS011;21525;41.240;16.500;2023-04-01T04:22:36;10.13;;;4.30;;
35418;SDS011;21525;41.240;16.500;2023-04-01T04:25:05;8.18;;;4.05;;
35418;SDS011;21525;41.240;16.500;2023-04-01T04:27:32;9.40;;;4.07;;
35418;SDS011;21525;41.240;16.500;2023-04-01T04:30:06;9.80;;;3.63;;
35418;SDS011;21525;41.240;16.500;2023-04-01T04:32:33;8.82;;;3.65;;
35418;SDS011;21525;41.240;16.500;2023-04-01T04:34:59;10.45;;;3.60;;
35418;SDS011;21525;41.240;16.500;2023-04-01T04:37:25;12.05;;;4.15;;
35418;SDS011;21525;41.240;16.500;2023-04-01T04:39:51;24.90;;;4.80;;
35418;SDS011;21525;41.240;16.500;2023-04-01T04:42:18;20.60;;;5.07;;
35418;SDS011;21525;41.240;16.500;2023-04-01T04:44:44;17.55;;;5.75;;
35418;SDS011;21525;41.240;16.500;2023-04-01T04:47:10;14.40;;;5.13;;
35418;SDS011;21525;41.240;16.500;2023-04-01T04:49:36;16.67;;;4.75;;
35418;SDS011;21525;41.240;16.500;2023-04-01T04:52:06;13.30;;;4.80;;
35418;SDS011;21525;41.240;16.500;2023-04-01T04:54:32;13.05;;;5.03;;
35418;SDS011;21525;41.240;16.500;2023-04-01T04:57:00;15.50;;;5.73;;
35418;SDS011;21525;41.240;16.500;2023-04-01T04:59:30;19.05;;;6.22;;
35418;SDS011;21525;41.240;16.500;2023-04-01T05:02:07;17.35;;;5.80;;
35418;SDS011;21525;41.240;16.500;2023-04-01T05:04:36;12.75;;;5.32;;
35418;SDS011;21525;41.240;16.500;2023-04-01T05:07:03;12.50;;;4.55;;
35418;SDS011;21525;41.240;16.500;2023-04-01T05:09:30;9.82;;;4.47;;
35418;SDS011;21525;41.240;16.500;2023-04-01T05:11:58;15.18;;;5.13;;
35418;SDS011;21525;41.240;16.500;2023-04-01T05:14:25;11.45;;;4.78;;
35418;SDS011;21525;41.240;16.500;2023-04-01T05:16:58;12.52;;;4.25;;
35418;SDS011;21525;41.240;16.500;2023-04-01T05:19:23;9.82;;;4.32;;
35418;SDS011;21525;41.240;16.500;2023-04-01T05:21:50;12.98;;;5.07;;
35418;SDS011;21525;41.240;16.500;2023-04-01T05:24:15;14.07;;;5.75;;
35418;SDS011;21525;41.240;16.500;2023-04-01T05:26:42;11.25;;;4.82;;
35418;SDS011;21525;41.240;16.500;2023-04-01T05:29:07;14.55;;;4.45;;
35418;SDS011;21525;41.240;16.500;2023-04-01T05:31:33;13.35;;;4.38;;
35418;SDS011;21525;41.240;16.500;2023-04-01T05:33:59;12.73;;;3.92;;
35418;SDS011;21525;41.240;16.500;2023-04-01T05:36:25;12.80;;;4.07;;
35418;SDS011;21525;41.240;16.500;2023-04-01T05:38:50;14.63;;;4.13;;
35418;SDS011;21525;41.240;16.500;2023-04-01T05:41:21;11.93;;;4.90;;
35418;SDS011;21525;41.240;16.500;2023-04-01T05:43:46;15.32;;;5.22;;
35418;SDS011;21525;41.240;16.500;2023-04-01T05:46:32;13.98;;;4.25;;
35418;SDS011;21525;41.240;16.500;2023-04-01T05:49:20;13.55;;;4.40;;
35418;SDS011;21525;41.240;16.500;2023-04-01T05:51:46;15.43;;;3.97;;
35418;SDS011;21525;41.240;16.500;2023-04-01T05:54:12;13.18;;;4.38;;
35418;SDS011;21525;41.240;16.500;2023-04-01T05:56:38;11.73;;;4.75;;
35418;SDS011;21525;41.240;16.500;2023-04-01T05:59:04;14.82;;;5.07;;
35418;SDS011;21525;41.240;16.500;2023-04-01T06:01:31;13.40;;;4.78;;
35418;SDS011;21525;41.240;16.500;2023-04-01T06:03:57;16.42;;;5.03;;
35418;SDS011;21525;41.240;16.500;2023-04-01T06:06:25;12.43;;;4.65;;
35418;SDS011;21525;41.240;16.500;2023-04-01T06:22:38;15.82;;;4.93;;
35418;SDS011;21525;41.240;16.500;2023-04-01T06:48:09;13.20;;;5.47;;
35418;SDS011;21525;41.240;16.500;2023-04-01T06:54:37;18.10;;;7.05;;
35418;SDS011;21525;41.240;16.500;2023-04-01T06:59:51;11.50;;;5.47;;
35418;SDS011;21525;41.240;16.500;2023-04-01T07:04:50;10.43;;;4.75;;
35418;SDS011;21525;41.240;16.500;2023-04-01T07:07:26;15.95;;;4.85;;
35418;SDS011;21525;41.240;16.500;2023-04-01T07:10:13;23.30;;;6.57;;
35418;SDS011;21525;41.240;16.500;2023-04-01T07:13:09;15.20;;;4.85;;
35418;SDS011;21525;41.240;16.500;2023-04-01T07:15:56;13.68;;;5.22;;
35418;SDS011;21525;41.240;16.500;2023-04-01T07:18:30;14.30;;;4.63;;
35418;SDS011;21525;41.240;16.500;2023-04-01T07:20:57;16.25;;;5.32;;
35418;SDS011;21525;41.240;16.500;2023-04-01T07:23:26;13.75;;;4.72;;
35418;SDS011;21525;41.240;16.500;2023-04-01T07:26:17;10.32;;;4.90;;
35418;SDS011;21525;41.240;16.500;2023-04-01T07:29:05;18.77;;;6.53;;
35418;SDS011;21525;41.240;16.500;2023-04-01T07:37:18;17.77;;;6.13;;
35418;SDS011;21525;41.240;16.500;2023-04-01T07:45:29;16.75;;;4.95;;
35418;SDS011;21525;41.240;16.500;2023-04-01T08:05:16;19.52;;;5.28;;
35418;SDS011;21525;41.240;16.500;2023-04-01T08:22:26;11.77;;;4.37;;
35418;SDS011;21525;41.240;16.500;2023-04-01T08:24:59;13.18;;;5.18;;
35418;SDS011;21525;41.240;16.500;2023-04-01T08:30:06;13.90;;;5.05;;
35418;SDS011;21525;41.240;16.500;2023-04-01T08:32:45;19.02;;;5.85;;
35418;SDS011;21525;41.240;16.500;2023-04-01T08:35:27;14.18;;;5.18;;
35418;SDS011;21525;41.240;16.500;2023-04-01T08:37:57;14.63;;;5.47;;
35418;SDS011;21525;41.240;16.500;2023-04-01T08:40:39;16.52;;;4.95;;
35418;SDS011;21525;41.240;16.500;2023-04-01T09:14:32;16.00;;;5.30;;
35418;SDS011;21525;41.240;16.500;2023-04-01T09:28:44;18.70;;;4.93;;
35418;SDS011;21525;41.240;16.500;2023-04-01T09:37:19;16.02;;;6.75;;
35418;SDS011;21525;41.240;16.500;2023-04-01T09:40:14;13.45;;;5.50;;
35418;SDS011;21525;41.240;16.500;2023-04-01T09:43:47;12.63;;;4.68;;
35418;SDS011;21525;41.240;16.500;2023-04-01T09:45:58;14.27;;;5.40;;
35418;SDS011;21525;41.240;16.500;2023-04-01T09:59:42;16.02;;;5.15;;
35418;SDS011;21525;41.240;16.500;2023-04-01T10:17:28;13.25;;;5.20;;
35418;SDS011;21525;41.240;16.500;2023-04-01T10:29:37;17.75;;;6.95;;
35418;SDS011;21525;41.240;16.500;2023-04-01T10:49:56;14.68;;;4.95;;
35418;SDS011;21525;41.240;16.500;2023-04-01T11:05:17;14.60;;;4.25;;
35418;SDS011;21525;41.240;16.500;2023-04-01T11:29:47;14.18;;;3.53;;
35418;SDS011;21525;41.240;16.500;2023-04-01T11:41:01;13.45;;;3.85;;
35418;SDS011;21525;41.240;16.500;2023-04-01T11:50:30;5.75;;;2.40;;
35418;SDS011;21525;41.240;16.500;2023-04-01T12:01:10;8.68;;;3.28;;
35418;SDS011;21525;41.240;16.500;2023-04-01T12:14:11;13.52;;;3.17;;
35418;SDS011;21525;41.240;16.500;2023-04-01T12:16:50;13.43;;;4.20;;
35418;SDS011;21525;41.240;16.500;2023-04-01T12:19:26;12.00;;;3.08;;
35418;SDS011;21525;41.240;16.500;2023-04-01T12:41:14;8.75;;;2.70;;
35418;SDS011;21525;41.240;16.500;2023-04-01T12:43:53;9.90;;;3.08;;
35418;SDS011;21525;41.240;16.500;2023-04-01T12:46:26;10.65;;;3.17;;
35418;SDS011;21525;41.240;16.500;2023-04-01T13:28:00;10.98;;;2.80;;
35418;SDS011;21525;41.240;16.500;2023-04-01T13:50:31;10.48;;;3.58;;
35418;SDS011;21525;41.240;16.500;2023-04-01T14:04:49;10.95;;;3.30;;
35418;SDS011;21525;41.240;16.500;2023-04-01T14:07:47;8.82;;;3.33;;
35418;SDS011;21525;41.240;16.500;2023-04-01T14:13:39;10.77;;;3.25;;
35418;SDS011;21525;41.240;16.500;2023-04-01T14:21:38;9.18;;;2.70;;
35418;SDS011;21525;41.240;16.500;2023-04-01T14:24:40;9.90;;;2.50;;
35418;SDS011;21525;41.240;16.500;2023-04-01T14:27:13;6.88;;;2.80;;
35418;SDS011;21525;41.240;16.500;2023-04-01T14:30:03;12.38;;;3.60;;
35418;SDS011;21525;41.240;16.500;2023-04-01T14:32:48;10.48;;;2.95;;
35418;SDS011;21525;41.240;16.500;2023-04-01T14:38:22;9.98;;;3.20;;
35418;SDS011;21525;41.240;16.500;2023-04-01T14:51:56;9.70;;;2.80;;
35418;SDS011;21525;41.240;16.500;2023-04-01T14:54:32;12.35;;;3.20;;
35418;SDS011;21525;41.240;16.500;2023-04-01T15:00:19;10.75;;;3.00;;
35418;SDS011;21525;41.240;16.500;2023-04-01T15:05:22;11.30;;;3.40;;
35418;SDS011;21525;41.240;16.500;2023-04-01T15:16:00;13.15;;;3.38;;
35418;SDS011;21525;41.240;16.500;2023-04-01T15:31:50;10.40;;;2.85;;
35418;SDS011;21525;41.240;16.500;2023-04-01T15:34:32;12.60;;;3.10;;
35418;SDS011;21525;41.240;16.500;2023-04-01T15:40:19;15.90;;;3.22;;
35418;SDS011;21525;41.240;16.500;2023-04-01T15:45:31;10.95;;;3.50;;
35418;SDS011;21525;41.240;16.500;2023-04-01T16:18:54;12.60;;;3.30;;
35418;SDS011;21525;41.240;16.500;2023-04-01T16:26:40;14.55;;;3.75;;
35418;SDS011;21525;41.240;16.500;2023-04-01T16:29:22;9.88;;;3.33;;
35418;SDS011;21525;41.240;16.500;2023-04-01T16:42:50;7.15;;;2.50;;
35418;SDS011;21525;41.240;16.500;2023-04-01T16:48:12;10.27;;;3.60;;
35418;SDS011;21525;41.240;16.500;2023-04-01T16:51:01;11.32;;;3.00;;
35418;SDS011;21525;41.240;16.500;2023-04-01T17:01:09;11.75;;;4.50;;
35418;SDS011;21525;41.240;16.500;2023-04-01T17:03:45;12.80;;;3.40;;
35418;SDS011;21525;41.240;16.500;2023-04-01T17:14:20;12.10;;;5.00;;
35418;SDS011;21525;41.240;16.500;2023-04-01T17:22:45;11.52;;;3.90;;
35418;SDS011;21525;41.240;16.500;2023-04-01T17:31:10;13.85;;;4.40;;
35418;SDS011;21525;41.240;16.500;2023-04-01T17:36:36;9.63;;;3.80;;
35418;SDS011;21525;41.240;16.500;2023-04-01T17:42:15;12.50;;;4.13;;
35418;SDS011;21525;41.240;16.500;2023-04-01T17:52:47;11.43;;;4.30;;
35418;SDS011;21525;41.240;16.500;2023-04-01T17:55:47;13.98;;;3.90;;
35418;SDS011;21525;41.240;16.500;2023-04-01T18:04:11;21.90;;;6.10;;
35418;SDS011;21525;41.240;16.500;2023-04-01T18:17:41;13.45;;;6.03;;
35418;SDS011;21525;41.240;16.500;2023-04-01T18:20:32;17.10;;;7.22;;
35418;SDS011;21525;41.240;16.500;2023-04-01T18:25:43;23.33;;;9.37;;
35418;SDS011;21525;41.240;16.500;2023-04-01T18:30:50;18.15;;;9.18;;
35418;SDS011;21525;41.240;16.500;2023-04-01T18:33:25;22.35;;;8.40;;
35418;SDS011;21525;41.240;16.500;2023-04-01T18:38:33;15.07;;;7.07;;
35418;SDS011;21525;41.240;16.500;2023-04-01T18:41:15;18.05;;;7.35;;
35418;SDS011;21525;41.240;16.500;2023-04-01T18:46:49;22.30;;;8.10;;
35418;SDS011;21525;41.240;16.500;2023-04-01T18:52:40;19.40;;;8.68;;
35418;SDS011;21525;41.240;16.500;2023-04-01T18:57:55;22.55;;;11.23;;
35418;SDS011;21525;41.240;16.500;2023-04-01T19:00:38;16.30;;;7.53;;
35418;SDS011;21525;41.240;16.500;2023-04-01T19:06:01;15.57;;;8.15;;
35418;SDS011;21525;41.240;16.500;2023-04-01T19:08:39;14.85;;;8.88;;
35418;SDS011;21525;41.240;16.500;2023-04-01T19:22:23;23.45;;;12.02;;
35418;SDS011;21525;41.240;16.500;2023-04-01T19:27:55;20.98;;;10.85;;
35418;SDS011;21525;41.240;16.500;2023-04-01T19:30:49;18.05;;;9.40;;
35418;SDS011;21525;41.240;16.500;2023-04-01T19:33:24;19.30;;;9.80;;
35418;SDS011;21525;41.240;16.500;2023-04-01T19:41:58;18.55;;;8.57;;
35418;SDS011;21525;41.240;16.500;2023-04-01T19:44:52;19.27;;;9.27;;
35418;SDS011;21525;41.240;16.500;2023-04-01T19:53:02;23.67;;;15.02;;
35418;SDS011;21525;41.240;16.500;2023-04-01T20:01:38;17.45;;;8.55;;
35418;SDS011;21525;41.240;16.500;2023-04-01T20:04:11;18.27;;;8.68;;
35418;SDS011;21525;41.240;16.500;2023-04-01T20:09:46;17.00;;;7.90;;
35418;SDS011;21525;41.240;16.500;2023-04-01T20:14:53;21.63;;;8.93;;
35418;SDS011;21525;41.240;16.500;2023-04-01T20:17:32;20.30;;;8.35;;
35418;SDS011;21525;41.240;16.500;2023-04-01T20:28:14;17.67;;;8.45;;
35418;SDS011;21525;41.240;16.500;2023-04-01T20:30:59;21.48;;;10.98;;
35418;SDS011;21525;41.240;16.500;2023-04-01T20:45:01;22.55;;;11.02;;
35418;SDS011;21525;41.240;16.500;2023-04-01T20:48:02;18.45;;;7.80;;
35418;SDS011;21525;41.240;16.500;2023-04-01T20:50:40;18.48;;;6.72;;
35418;SDS011;21525;41.240;16.500;2023-04-01T20:53:29;19.17;;;8.10;;
35418;SDS011;21525;41.240;16.500;2023-04-01T20:56:15;19.83;;;7.78;;
35418;SDS011;21525;41.240;16.500;2023-04-01T20:59:09;20.52;;;6.10;;
35418;SDS011;21525;41.240;16.500;2023-04-01T21:07:49;15.13;;;4.90;;
35418;SDS011;21525;41.240;16.500;2023-04-01T21:13:27;15.98;;;6.95;;
35418;SDS011;21525;41.240;16.500;2023-04-01T21:19:22;17.35;;;5.00;;
35418;SDS011;21525;41.240;16.500;2023-04-01T21:33:27;19.60;;;4.60;;
35418;SDS011;21525;41.240;16.500;2023-04-01T21:35:51;14.77;;;4.75;;
35418;SDS011;21525;41.240;16.500;2023-04-01T21:47:08;14.02;;;3.70;;
35418;SDS011;21525;41.240;16.500;2023-04-01T21:50:54;16.30;;;4.90;;
35418;SDS011;21525;41.240;16.500;2023-04-01T22:12:46;13.60;;;4.60;;
35418;SDS011;21525;41.240;16.500;2023-04-01T22:15:20;18.83;;;4.82;;
35418;SDS011;21525;41.240;16.500;2023-04-01T22:20:52;13.68;;;4.13;;
35418;SDS011;21525;41.240;16.500;2023-04-01T22:23:36;12.38;;;4.20;;
35418;SDS011;21525;41.240;16.500;2023-04-01T22:31:14;17.45;;;6.00;;
35418;SDS011;21525;41.240;16.500;2023-04-01T22:33:52;18.55;;;5.10;;
35418;SDS011;21525;41.240;16.500;2023-04-01T22:36:25;15.00;;;4.03;;
35418;SDS011;21525;41.240;16.500;2023-04-01T22:44:13;14.25;;;3.85;;
35418;SDS011;21525;41.240;16.500;2023-04-01T22:46:58;21.02;;;4.85;;
35418;SDS011;21525;41.240;16.500;2023-04-01T22:49:38;18.50;;;4.32;;
35418;SDS011;21525;41.240;16.500;2023-04-01T22:55:21;13.40;;;3.60;;
35418;SDS011;21525;41.240;16.500;2023-04-01T22:57:55;17.95;;;6.28;;
35418;SDS011;21525;41.240;16.500;2023-04-01T23:00:26;20.25;;;6.70;;
35418;SDS011;21525;41.240;16.500;2023-04-01T23:10:59;16.88;;;4.85;;
35418;SDS011;21525;41.240;16.500;2023-04-01T23:13:34;15.35;;;3.80;;
35418;SDS011;21525;41.240;16.500;2023-04-01T23:16:04;15.30;;;4.13;;
35418;SDS011;21525;41.240;16.500;2023-04-01T23:23:50;20.30;;;6.28;;
35418;SDS011;21525;41.240;16.500;2023-04-01T23:28:52;27.73;;;9.85;;
35418;SDS011;21525;41.240;16.500;2023-04-01T23:33:58;31.02;;;11.80;;
35418;SDS011;21525;41.240;16.500;2023-04-01T23:36:30;28.77;;;10.85;;
35418;SDS011;21525;41.240;16.500;2023-04-01T23:39:05;29.75;;;14.55;;
35418;SDS011;21525;41.240;16.500;2023-04-01T23:41:44;26.90;;;8.70;;
35418;SDS011;21525;41.240;16.500;2023-04-01T23:44:11;24.70;;;8.63;;
35418;SDS011;21525;41.240;16.500;2023-04-01T23:46:39;19.83;;;7.25;;
35418;SDS011;21525;41.240;16.500;2023-04-01T23:49:14;19.33;;;5.78;;
35418;SDS011;21525;41.240;16.500;2023-04-01T23:51:56;25.45;;;7.05;;
35418;SDS011;21525;41.240;16.500;2023-04-01T23:54:29;23.17;;;6.57;;
35418;SDS011;21525;41.240;16.500;2023-04-01T23:57:04;30.27;;;9.20;;
35418;SDS011;21525;41.240;16.500;2023-04-01T23:59:37;22.90;;;8.10;;
